Time;durP1;ratioP1;P1;durP2;ratioP2;P2;SDS_P1;SDS_P2;PMS_P1;PMS_P2;Temp;Humidity;BMP_temperature;BMP_pressure;BME280_temperature;BME280_humidity;BME280_pressure;Samples;Min_cycle;Max_cycle;Signal;HPM_P1;HPM_P2
2023/11/14 00:01:39;;;;;;;13.05;8.73;;;230.60;2252.80;;;;;;5049723;28;20075;-61
2023/11/14 00:04:05;;;;;;;10.35;7.00;;;230.70;2252.80;;;;;;5050242;28;20120;-61
2023/11/14 00:06:30;;;;;;;12.02;6.38;;;230.70;2252.80;;;;;;5049472;28;20432;-61
2023/11/14 00:08:56;;;;;;;13.30;7.05;;;230.60;2252.80;;;;;;5050072;28;20028;-60
2023/11/14 00:11:24;;;;;;;10.68;6.50;;;230.70;2252.80;;;;;;5049853;28;20027;-60
2023/11/14 00:13:49;;;;;;;8.20;6.60;;;230.80;2252.80;;;;;;5049743;28;20032;-61
2023/11/14 00:16:15;;;;;;;7.50;5.50;;;230.70;2252.80;;;;;;5049903;28;20025;-62
2023/11/14 00:18:41;;;;;;;9.35;5.93;;;230.80;2252.80;;;;;;5049281;28;20584;-60
2023/11/14 00:21:07;;;;;;;10.38;6.78;;;230.80;2252.80;;;;;;5049209;28;20092;-61
2023/11/14 00:23:33;;;;;;;12.82;7.32;;;230.80;2252.80;;;;;;5049634;28;20092;-62
2023/11/14 00:25:59;;;;;;;23.65;15.60;;;230.70;2252.80;;;;;;5031194;28;20669;-61
2023/11/14 00:28:25;;;;;;;22.88;14.50;;;230.70;2252.80;;;;;;5049711;28;20583;-62
2023/11/14 00:30:50;;;;;;;15.45;11.00;;;230.60;2252.80;;;;;;5049250;28;20029;-61
2023/11/14 00:33:16;;;;;;;14.30;9.02;;;230.70;2252.80;;;;;;5049320;28;20036;-61
2023/11/14 00:35:43;;;;;;;16.75;9.18;;;230.60;2252.80;;;;;;5049173;28;20423;-61
2023/11/14 00:38:10;;;;;;;15.57;8.52;;;230.70;2252.80;;;;;;5049433;28;20032;-61
2023/11/14 00:40:38;;;;;;;27.02;14.60;;;230.60;2252.80;;;;;;5049476;28;20025;-60
2023/11/14 00:43:04;;;;;;;42.78;22.98;;;230.50;2252.80;;;;;;5049343;28;20480;-60
2023/11/14 00:45:30;;;;;;;20.90;12.98;;;230.60;2252.80;;;;;;5048501;28;20032;-61
2023/11/14 00:47:56;;;;;;;18.48;10.88;;;230.50;2252.80;;;;;;5049611;28;20055;-60
2023/11/14 00:50:23;;;;;;;47.60;26.83;;;230.50;2252.80;;;;;;5049452;28;20096;-60
2023/11/14 00:52:49;;;;;;;68.00;35.97;;;230.50;2252.80;;;;;;5050767;28;20387;-60
2023/11/14 00:55:14;;;;;;;101.55;52.00;;;230.50;2252.80;;;;;;5050705;28;20013;-60
2023/11/14 00:57:41;;;;;;;75.05;38.28;;;230.50;2252.80;;;;;;5050499;28;20029;-60
2023/11/14 01:00:07;;;;;;;48.38;25.05;;;230.50;2252.80;;;;;;5050509;28;20387;-60
2023/11/14 01:02:33;;;;;;;42.00;20.85;;;230.50;2252.80;;;;;;5050471;28;20542;-59
2023/11/14 01:04:59;;;;;;;31.48;16.38;;;230.50;2252.80;;;;;;5050066;28;20436;-60
2023/11/14 01:07:24;;;;;;;12.18;7.15;;;230.50;2252.80;;;;;;5050582;28;20075;-60
2023/11/14 01:09:50;;;;;;;9.07;6.18;;;230.40;2252.80;;;;;;5049978;28;20025;-61
2023/11/14 01:12:16;;;;;;;8.50;5.25;;;205.70;2252.80;;;;;;5050513;28;20055;-60
2023/11/14 01:14:42;;;;;;;11.05;6.78;;;205.70;2252.80;;;;;;5050102;28;20029;-60
2023/11/14 01:17:08;;;;;;;12.00;7.30;;;205.70;2252.80;;;;;;5050278;28;20032;-60
2023/11/14 01:19:41;;;;;;;12.43;5.97;;;205.70;2252.80;;;;;;5050337;28;20392;-60
2023/11/14 01:22:09;;;;;;;9.77;6.30;;;230.50;2252.80;;;;;;5050286;28;20435;-60
2023/11/14 01:24:35;;;;;;;10.50;6.75;;;230.60;2252.80;;;;;;5050186;28;20375;-60
2023/11/14 01:27:02;;;;;;;11.30;5.20;;;230.70;2252.80;;;;;;5049845;28;20029;-60
2023/11/14 01:29:29;;;;;;;6.53;4.53;;;230.70;2252.80;;;;;;5049454;28;20108;-60
2023/11/14 01:31:55;;;;;;;25.38;15.65;;;230.80;2252.80;;;;;;5049597;28;20506;-60
2023/11/14 01:34:20;;;;;;;19.58;12.85;;;230.60;2252.80;;;;;;5049924;28;20075;-60
2023/11/14 01:36:46;;;;;;;15.10;9.45;;;230.40;2252.80;;;;;;5049755;28;20024;-60
2023/11/14 01:39:12;;;;;;;47.90;30.83;;;230.40;2252.80;;;;;;5049251;28;20036;-60
2023/11/14 01:41:37;;;;;;;30.75;18.42;;;205.70;2252.80;;;;;;5049757;28;20025;-61
2023/11/14 01:44:04;;;;;;;31.65;20.77;;;205.70;2252.80;;;;;;5049662;28;20033;-60
2023/11/14 01:46:31;;;;;;;22.55;13.98;;;205.70;2252.80;;;;;;5049372;28;20072;-60
2023/11/14 01:48:58;;;;;;;20.52;13.95;;;205.60;2252.80;;;;;;5049821;28;20458;-60
2023/11/14 01:51:25;;;;;;;55.70;28.90;;;205.60;2252.80;;;;;;5049706;28;20024;-60
2023/11/14 01:53:54;;;;;;;30.17;17.23;;;205.60;2252.80;;;;;;5049533;28;20029;-60
2023/11/14 01:56:20;;;;;;;25.08;14.85;;;205.70;2252.80;;;;;;5049338;28;20021;-61
2023/11/14 01:58:46;;;;;;;34.17;18.23;;;205.70;2252.80;;;;;;5049582;28;20032;-58
2023/11/14 02:01:13;;;;;;;24.65;14.02;;;205.60;2252.80;;;;;;5049471;28;20053;-60
2023/11/14 02:03:39;;;;;;;13.93;9.00;;;205.70;2252.80;;;;;;5050032;28;20200;-61
2023/11/14 02:06:08;;;;;;;12.68;7.82;;;205.60;2252.80;;;;;;5050578;28;20100;-60
2023/11/14 02:08:34;;;;;;;13.18;8.60;;;205.60;2252.80;;;;;;5049901;28;20185;-60
2023/11/14 02:11:00;;;;;;;16.42;9.60;;;205.60;2252.80;;;;;;5049291;28;20110;-60
2023/11/14 02:13:26;;;;;;;11.00;7.03;;;205.50;2252.80;;;;;;5049533;28;20134;-60
2023/11/14 02:15:52;;;;;;;11.13;7.20;;;205.50;2252.80;;;;;;5049051;28;20117;-60
2023/11/14 02:18:18;;;;;;;11.95;6.82;;;205.60;2252.80;;;;;;5049160;28;20078;-61
2023/11/14 02:20:45;;;;;;;13.07;6.40;;;205.70;2252.80;;;;;;5048991;28;20375;-60
2023/11/14 02:23:14;;;;;;;15.60;7.78;;;205.60;2252.80;;;;;;5049162;28;20037;-61
2023/11/14 02:25:39;;;;;;;11.75;6.93;;;205.60;2252.80;;;;;;5049278;28;20056;-61
2023/11/14 02:28:06;;;;;;;8.45;5.15;;;205.50;2252.80;;;;;;5049358;28;20054;-60
2023/11/14 02:30:32;;;;;;;15.35;9.00;;;205.50;2252.80;;;;;;5048882;28;20087;-61
2023/11/14 02:32:58;;;;;;;12.20;7.55;;;205.70;2252.80;;;;;;5049131;28;20545;-60
2023/11/14 02:35:24;;;;;;;27.58;16.60;;;205.70;2252.80;;;;;;5048995;28;20021;-60
2023/11/14 02:37:49;;;;;;;25.67;13.93;;;205.60;2252.80;;;;;;5049092;28;20056;-60
2023/11/14 02:40:16;;;;;;;26.95;14.80;;;205.60;2252.80;;;;;;5049067;28;20065;-60
2023/11/14 02:42:45;;;;;;;19.38;12.15;;;205.60;2252.80;;;;;;5052149;28;20055;-60
2023/11/14 02:45:11;;;;;;;64.03;35.25;;;205.60;2252.80;;;;;;5052831;28;20029;-60
2023/11/14 02:47:36;;;;;;;44.25;26.85;;;205.60;2252.80;;;;;;5053467;28;20379;-61
2023/11/14 02:50:41;;;;;;;23.13;13.73;;;205.60;2252.80;;;;;;5052808;28;20021;-61
2023/11/14 02:53:08;;;;;;;59.88;34.22;;;205.60;2252.80;;;;;;5052991;28;20033;-62
2023/11/14 02:55:34;;;;;;;55.50;34.05;;;205.50;2252.80;;;;;;5052668;28;20479;-61
2023/11/14 02:57:59;;;;;;;31.27;19.45;;;205.40;2252.80;;;;;;5052755;28;20028;-63
2023/11/14 03:00:25;;;;;;;37.05;21.20;;;205.40;2252.80;;;;;;5052689;28;20035;-61
2023/11/14 03:02:51;;;;;;;30.60;17.45;;;205.40;2252.80;;;;;;5052386;28;20053;-60
2023/11/14 03:05:17;;;;;;;24.73;14.88;;;205.30;2252.80;;;;;;5052713;28;20371;-60
2023/11/14 03:07:43;;;;;;;18.50;11.70;;;205.30;2252.80;;;;;;5052776;28;20387;-60
2023/11/14 03:10:09;;;;;;;16.70;9.95;;;205.10;2252.80;;;;;;5052577;28;20029;-61
2023/11/14 03:12:35;;;;;;;16.38;9.25;;;205.10;2252.80;;;;;;5052783;28;20060;-62
2023/11/14 03:15:00;;;;;;;14.95;9.52;;;205.10;2252.80;;;;;;5052313;28;20059;-60
2023/11/14 03:17:28;;;;;;;15.40;9.95;;;180.00;2252.80;;;;;;5052385;28;20033;-61
2023/11/14 03:19:53;;;;;;;12.38;8.75;;;179.70;2252.80;;;;;;5052283;28;20029;-60
2023/11/14 03:22:19;;;;;;;11.52;6.88;;;180.00;2252.80;;;;;;5052087;28;20039;-59
2023/11/14 03:24:45;;;;;;;11.18;6.45;;;204.80;2252.80;;;;;;5052319;28;20112;-60
2023/11/14 03:27:11;;;;;;;10.68;5.35;;;205.00;2252.80;;;;;;5052087;28;20375;-60
2023/11/14 03:29:36;;;;;;;14.98;13.57;;;205.20;2252.80;;;;;;5052414;28;20040;-60
2023/11/14 03:32:02;;;;;;;6.85;4.65;;;205.30;2252.80;;;;;;5051928;28;20083;-60
2023/11/14 03:34:28;;;;;;;7.00;4.20;;;205.40;2252.80;;;;;;5051982;28;20427;-60
2023/11/14 03:36:54;;;;;;;7.63;4.85;;;205.50;2252.80;;;;;;5052468;28;20017;-61
2023/11/14 03:39:20;;;;;;;9.82;7.88;;;205.60;2252.80;;;;;;5053068;28;20100;-60
2023/11/14 03:41:46;;;;;;;11.00;7.60;;;205.50;2252.80;;;;;;5053547;28;20029;-61
2023/11/14 03:44:12;;;;;;;8.57;5.70;;;205.50;2252.80;;;;;;5053683;28;20093;-62
2023/11/14 03:46:39;;;;;;;9.45;6.30;;;205.50;2252.80;;;;;;5053743;28;20028;-61
2023/11/14 03:49:05;;;;;;;12.57;9.30;;;205.50;2252.80;;;;;;5053459;28;20075;-60
2023/11/14 03:51:32;;;;;;;10.30;6.80;;;205.40;2252.80;;;;;;5051599;28;20070;-60
2023/11/14 03:53:59;;;;;;;23.63;13.25;;;205.40;2252.80;;;;;;5050663;28;20516;-60
2023/11/14 03:56:24;;;;;;;25.60;16.65;;;205.20;2252.80;;;;;;5033225;28;20391;-60
2023/11/14 03:58:50;;;;;;;13.98;10.27;;;205.20;2252.80;;;;;;5051738;28;20032;-59
2023/11/14 04:01:16;;;;;;;18.80;10.15;;;205.00;2252.80;;;;;;5051508;28;20029;-61
2023/11/14 04:03:43;;;;;;;18.90;10.68;;;205.00;2252.80;;;;;;5051560;28;20110;-61
2023/11/14 04:06:10;;;;;;;8.43;5.90;;;205.10;2252.80;;;;;;5051451;28;20220;-62
2023/11/14 04:08:37;;;;;;;6.95;4.72;;;205.10;2252.80;;;;;;5051587;28;20017;-61
2023/11/14 04:11:03;;;;;;;6.63;4.05;;;205.20;2252.80;;;;;;5033516;28;20572;-61
2023/11/14 04:13:28;;;;;;;8.32;5.03;;;205.20;2252.80;;;;;;5051385;28;20033;-61
2023/11/14 04:15:54;;;;;;;8.73;5.15;;;205.30;2252.80;;;;;;5051627;28;20071;-61
2023/11/14 04:18:20;;;;;;;9.13;5.05;;;205.40;2252.80;;;;;;5051473;28;20383;-61
2023/11/14 04:20:46;;;;;;;6.85;4.90;;;205.30;2252.80;;;;;;5051225;28;20074;-61
2023/11/14 04:23:12;;;;;;;9.73;5.70;;;205.30;2252.80;;;;;;5051027;28;20479;-61
2023/11/14 04:25:37;;;;;;;9.43;5.45;;;205.30;2252.80;;;;;;5051230;28;20104;-61
2023/11/14 04:28:03;;;;;;;9.13;7.28;;;205.30;2252.80;;;;;;5051092;28;20040;-61
2023/11/14 04:30:29;;;;;;;12.93;7.30;;;205.30;2252.80;;;;;;5051076;28;20021;-61
2023/11/14 04:32:55;;;;;;;9.75;6.03;;;205.30;2252.80;;;;;;5051039;28;20498;-61
2023/11/14 04:35:21;;;;;;;10.27;6.53;;;205.30;2252.80;;;;;;5050767;28;20108;-62
2023/11/14 04:37:50;;;;;;;10.15;4.93;;;205.30;2252.80;;;;;;5051045;28;20412;-61
2023/11/14 04:40:16;;;;;;;6.47;3.67;;;205.40;2252.80;;;;;;5050812;28;20021;-61
2023/11/14 04:42:42;;;;;;;7.57;3.22;;;205.40;2252.80;;;;;;5050776;28;20033;-61
2023/11/14 04:45:08;;;;;;;6.75;4.18;;;205.30;2252.80;;;;;;5050912;28;20028;-61
2023/11/14 04:47:33;;;;;;;8.05;3.72;;;205.60;2252.80;;;;;;5050719;28;20029;-61
2023/11/14 04:49:59;;;;;;;6.68;4.72;;;205.70;2252.80;;;;;;5050842;28;20033;-62
2023/11/14 04:52:25;;;;;;;5.75;3.85;;;205.60;2252.80;;;;;;5050728;28;20026;-61
2023/11/14 04:54:50;;;;;;;7.28;4.22;;;205.60;2252.80;;;;;;5050526;28;20052;-61
2023/11/14 04:57:16;;;;;;;5.95;3.45;;;205.50;2252.80;;;;;;5050670;28;20025;-61
2023/11/14 04:59:42;;;;;;;5.60;3.10;;;205.40;2252.80;;;;;;5050328;28;20079;-61
2023/11/14 05:02:10;;;;;;;5.20;3.45;;;205.40;2252.80;;;;;;5050427;28;20049;-60
2023/11/14 05:04:36;;;;;;;9.27;4.45;;;205.50;2252.80;;;;;;5050287;28;20037;-61
2023/11/14 05:07:02;;;;;;;8.52;3.92;;;205.40;2252.80;;;;;;5050301;28;20024;-61
2023/11/14 05:09:28;;;;;;;4.72;3.25;;;205.40;2252.80;;;;;;5050296;28;20028;-61
2023/11/14 05:11:55;;;;;;;9.18;4.20;;;205.40;2252.80;;;;;;5050516;28;20025;-61
2023/11/14 05:14:21;;;;;;;5.60;3.10;;;205.50;2252.80;;;;;;5050983;28;20029;-61
2023/11/14 05:16:47;;;;;;;8.18;3.20;;;205.40;2252.80;;;;;;5050789;28;20352;-61
2023/11/14 05:19:13;;;;;;;9.95;5.32;;;205.30;2252.80;;;;;;5050423;28;20112;-61
2023/11/14 05:21:39;;;;;;;9.82;5.20;;;205.20;2252.80;;;;;;5050340;28;20102;-61
2023/11/14 05:24:07;;;;;;;8.55;4.80;;;205.10;2252.80;;;;;;5050006;28;20369;-61
2023/11/14 05:26:33;;;;;;;15.80;9.35;;;205.20;2252.80;;;;;;5049875;28;20020;-62
2023/11/14 05:28:58;;;;;;;8.57;6.05;;;205.30;2252.80;;;;;;5049197;28;20029;-63
2023/11/14 05:31:25;;;;;;;10.57;5.72;;;205.40;2252.80;;;;;;5047491;28;20041;-62
2023/11/14 05:33:51;;;;;;;8.70;4.75;;;205.50;2252.80;;;;;;5047999;28;20033;-61
2023/11/14 05:36:17;;;;;;;9.27;5.25;;;205.50;2252.80;;;;;;5048258;28;20028;-61
2023/11/14 05:38:42;;;;;;;7.07;3.92;;;205.60;2252.80;;;;;;5048543;28;20033;-62
2023/11/14 05:41:08;;;;;;;7.15;3.83;;;205.70;2252.80;;;;;;5048247;28;20025;-61
2023/11/14 05:43:34;;;;;;;6.82;3.95;;;205.70;2252.80;;;;;;5047559;28;20426;-61
2023/11/14 05:46:00;;;;;;;23.60;13.55;;;205.70;2252.80;;;;;;5047813;28;20375;-60
2023/11/14 05:48:28;;;;;;;26.13;18.00;;;230.40;2252.80;;;;;;5048296;28;20027;-61
2023/11/14 05:50:54;;;;;;;19.23;15.38;;;230.40;2252.80;;;;;;5048153;28;20043;-62
2023/11/14 05:53:19;;;;;;;20.80;18.70;;;230.50;2252.80;;;;;;5047470;28;20037;-62
2023/11/14 05:55:45;;;;;;;16.02;10.38;;;230.50;2252.80;;;;;;5047617;28;20147;-61
2023/11/14 05:58:11;;;;;;;16.02;10.23;;;230.50;2252.80;;;;;;5046568;28;20043;-61
2023/11/14 06:00:37;;;;;;;225.68;132.00;;;230.50;2252.80;;;;;;5047214;28;20078;-62
2023/11/14 06:03:03;;;;;;;259.98;162.60;;;230.50;2252.80;;;;;;5047319;28;20045;-62
2023/11/14 06:05:29;;;;;;;126.55;87.28;;;230.60;2252.80;;;;;;5047554;28;20104;-61
2023/11/14 06:07:54;;;;;;;39.95;26.17;;;230.60;2252.80;;;;;;5057664;28;20527;-61
2023/11/14 06:10:20;;;;;;;16.83;12.45;;;230.60;2252.80;;;;;;5056111;28;20096;-61
2023/11/14 06:12:46;;;;;;;24.17;20.80;;;230.70;2252.80;;;;;;5058376;28;20021;-61
2023/11/14 06:15:13;;;;;;;17.92;13.18;;;230.80;2252.80;;;;;;5053658;28;20344;-63
2023/11/14 06:17:39;;;;;;;12.35;7.78;;;230.90;2252.80;;;;;;5046766;28;20021;-65
2023/11/14 06:20:07;;;;;;;12.40;9.43;;;230.90;2252.80;;;;;;5047474;28;20036;-60
2023/11/14 06:22:32;;;;;;;16.63;8.60;;;231.00;2252.80;;;;;;5058754;28;20540;-62
2023/11/14 06:24:59;;;;;;;26.75;18.20;;;231.20;2252.80;;;;;;5067569;28;20107;-61
2023/11/14 06:27:25;;;;;;;14.30;11.90;;;231.20;2252.80;;;;;;5067760;28;20029;-60
2023/11/14 06:29:51;;;;;;;45.22;33.30;;;231.20;2252.80;;;;;;5069330;28;20524;-61
2023/11/14 06:32:17;;;;;;;35.58;30.35;;;231.20;2252.80;;;;;;5058772;28;20198;-61
2023/11/14 06:34:42;;;;;;;11.75;7.72;;;231.30;2252.80;;;;;;5049160;28;20040;-60
2023/11/14 06:37:08;;;;;;;12.98;10.27;;;231.30;2252.80;;;;;;5048737;28;20123;-62
2023/11/14 06:39:34;;;;;;;13.95;12.68;;;231.30;2252.80;;;;;;5048990;28;20021;-60
2023/11/14 06:42:00;;;;;;;28.23;24.15;;;256.00;2252.80;;;;;;5048449;28;20036;-61
2023/11/14 06:44:26;;;;;;;14.63;11.48;;;256.10;2252.80;;;;;;5048292;28;20037;-61
2023/11/14 06:46:51;;;;;;;16.42;10.30;;;256.20;2252.80;;;;;;5048940;28;20025;-60
2023/11/14 06:49:17;;;;;;;10.43;9.30;;;256.30;2252.80;;;;;;5049080;28;20053;-60
2023/11/14 06:51:43;;;;;;;12.55;8.70;;;256.30;2252.80;;;;;;5049048;28;20036;-61
2023/11/14 06:54:09;;;;;;;9.40;7.72;;;256.50;2252.80;;;;;;5048407;28;20029;-69
2023/11/14 06:56:35;;;;;;;9.07;5.50;;;256.70;2252.80;;;;;;5049060;28;20096;-70
2023/11/14 06:59:00;;;;;;;11.77;6.53;;;256.80;2252.80;;;;;;5048974;28;20032;-65
2023/11/14 07:01:26;;;;;;;10.48;8.13;;;256.90;2252.80;;;;;;5048383;28;20435;-65
2023/11/14 07:03:52;;;;;;;9.77;8.30;;;281.70;2278.40;;;;;;5048523;28;20037;-65
2023/11/14 07:06:19;;;;;;;8.23;4.95;;;281.70;2278.40;;;;;;5048326;28;20025;-67
2023/11/14 07:08:45;;;;;;;14.13;10.98;;;281.90;2278.40;;;;;;5048318;28;20025;-65
2023/11/14 07:11:11;;;;;;;18.20;14.43;;;281.90;2278.40;;;;;;5064009;28;20017;-64
2023/11/14 07:13:38;;;;;;;15.32;11.65;;;282.10;2278.40;;;;;;5048772;28;20032;-67
2023/11/14 07:16:04;;;;;;;15.57;8.68;;;282.30;2278.40;;;;;;5048347;28;20467;-67
2023/11/14 07:18:30;;;;;;;40.25;29.48;;;282.30;2278.40;;;;;;5047860;28;20029;-64
2023/11/14 07:20:55;;;;;;;37.45;26.05;;;282.50;2278.40;;;;;;5047871;28;20013;-66
2023/11/14 07:23:21;;;;;;;50.72;36.15;;;307.20;2304.00;;;;;;5047385;28;20410;-66
2023/11/14 07:25:47;;;;;;;47.42;34.67;;;307.30;2304.00;;;;;;5047913;28;20611;-66
2023/11/14 07:28:13;;;;;;;51.10;34.90;;;307.60;2304.00;;;;;;5048884;28;20125;-65
2023/11/14 07:30:39;;;;;;;57.40;39.72;;;307.90;2304.00;;;;;;5051368;28;20032;-66
2023/11/14 07:33:05;;;;;;;73.35;56.72;;;332.90;2329.60;;;;;;5052095;28;20025;-66
2023/11/14 07:35:31;;;;;;;60.97;47.00;;;358.80;2329.60;;;;;;5051211;28;20678;-63
2023/11/14 07:37:59;;;;;;;41.95;27.73;;;384.70;2329.60;;;;;;5064135;28;20043;-66
2023/11/14 07:40:24;;;;;;;39.10;29.67;;;384.90;2329.60;;;;;;5051546;28;20063;-67
2023/11/14 07:42:50;;;;;;;34.88;27.10;;;435.30;2355.20;;;;;;5051480;28;20064;-66
2023/11/14 07:45:16;;;;;;;33.05;26.63;;;436.00;2355.20;;;;;;5051712;28;20395;-67
2023/11/14 07:47:42;;;;;;;28.65;23.50;;;460.80;2380.80;;;;;;5051146;28;20371;-66
2023/11/14 07:50:07;;;;;;;27.85;20.00;;;461.10;2380.80;;;;;;5051773;28;20392;-67
2023/11/14 07:52:33;;;;;;;26.38;21.25;;;486.40;2304.00;;;;;;5051173;28;20029;-66
2023/11/14 07:55:02;;;;;;;26.38;20.05;;;512.10;2201.60;;;;;;5051449;28;20025;-66
2023/11/14 07:57:29;;;;;;;37.40;28.88;;;538.00;2099.20;;;;;;5066436;28;20032;-68
2023/11/14 07:59:56;;;;;;;57.90;49.53;;;563.90;1996.80;;;;;;5051146;28;20036;-67
2023/11/14 08:02:22;;;;;;;40.88;36.58;;;564.10;1971.20;;;;;;5050818;28;20052;-67
2023/11/14 08:04:52;;;;;;;39.03;33.70;;;589.30;1894.40;;;;;;5050746;28;20056;-67
2023/11/14 08:07:19;;;;;;;34.95;30.23;;;614.80;1817.60;;;;;;5048215;28;20465;-66
2023/11/14 08:09:45;;;;;;;61.42;54.72;;;615.30;1792.00;;;;;;5050978;28;20025;-66
2023/11/14 08:12:11;;;;;;;101.90;91.28;;;640.50;1766.40;;;;;;5050855;28;20024;-67
2023/11/14 08:14:39;;;;;;;101.75;91.00;;;640.00;1766.40;;;;;;5050816;28;20025;-66
2023/11/14 08:17:04;;;;;;;83.50;74.30;;;640.90;1715.20;;;;;;5050921;28;20047;-66
2023/11/14 08:19:30;;;;;;;141.15;126.07;;;640.20;1740.80;;;;;;5051751;28;20029;-66
2023/11/14 08:22:03;;;;;;;170.57;152.35;;;615.10;1740.80;;;;;;5056704;28;20021;-67
2023/11/14 08:24:29;;;;;;;153.68;137.30;;;615.20;1740.80;;;;;;5053840;28;20594;-66
2023/11/14 08:26:55;;;;;;;129.70;113.95;;;615.30;1740.80;;;;;;5055693;28;20029;-65
2023/11/14 08:29:21;;;;;;;105.28;93.65;;;589.50;1817.60;;;;;;5051417;28;20024;-64
2023/11/14 08:31:47;;;;;;;81.90;72.75;;;589.70;1792.00;;;;;;5052186;28;20364;-65
2023/11/14 08:34:13;;;;;;;74.05;62.72;;;614.80;1740.80;;;;;;5051116;28;20550;-65
2023/11/14 08:36:39;;;;;;;75.60;66.70;;;615.20;1689.60;;;;;;5050501;28;20025;-67
2023/11/14 08:39:05;;;;;;;100.03;80.97;;;665.60;1664.00;;;;;;5051683;28;20468;-67
2023/11/14 08:41:30;;;;;;;149.85;109.88;;;640.70;1664.00;;;;;;5051219;28;20025;-65
2023/11/14 08:43:57;;;;;;;92.18;76.97;;;640.50;1664.00;;;;;;5051302;28;20025;-64
2023/11/14 08:46:23;;;;;;;88.70;79.07;;;614.80;1740.80;;;;;;5050618;28;20021;-65
2023/11/14 08:48:49;;;;;;;88.55;72.93;;;589.50;1792.00;;;;;;5050785;28;20053;-64
2023/11/14 08:51:16;;;;;;;92.40;78.72;;;589.70;1792.00;;;;;;5050564;28;20044;-65
2023/11/14 08:53:43;;;;;;;96.22;79.43;;;589.50;1817.60;;;;;;5050415;28;20109;-65
2023/11/14 08:56:09;;;;;;;106.40;93.15;;;589.70;1817.60;;;;;;5050415;28;20024;-64
2023/11/14 08:58:36;;;;;;;110.30;87.38;;;589.30;1843.20;;;;;;5050472;28;20020;-65
2023/11/14 09:01:04;;;;;;;79.75;70.57;;;615.20;1766.40;;;;;;5049830;28;20033;-65
2023/11/14 09:03:30;;;;;;;58.33;51.13;;;640.50;1715.20;;;;;;5049997;28;20134;-65
2023/11/14 09:05:56;;;;;;;84.80;73.88;;;640.90;1715.20;;;;;;5050225;28;20475;-65
2023/11/14 09:08:22;;;;;;;73.15;64.95;;;666.10;1715.20;;;;;;5050141;28;20036;-65
2023/11/14 09:10:48;;;;;;;56.10;47.08;;;665.90;1689.60;;;;;;5050286;28;20021;-66
2023/11/14 09:13:15;;;;;;;46.13;39.60;;;665.90;1664.00;;;;;;5050213;28;20035;-65
2023/11/14 09:15:41;;;;;;;44.42;34.90;;;665.70;1664.00;;;;;;5049961;28;20018;-65
2023/11/14 09:18:08;;;;;;;55.13;46.30;;;640.10;1689.60;;;;;;5050295;28;20083;-66
2023/11/14 09:20:34;;;;;;;63.25;49.13;;;615.10;1715.20;;;;;;5050365;28;20502;-67
2023/11/14 09:23:00;;;;;;;56.45;50.75;;;614.80;1740.80;;;;;;5049966;28;20037;-67
2023/11/14 09:25:27;;;;;;;62.45;55.80;;;614.50;1766.40;;;;;;5050082;28;20487;-67
2023/11/14 09:27:53;;;;;;;64.72;58.10;;;615.20;1715.20;;;;;;5049759;28;20394;-68
2023/11/14 09:30:19;;;;;;;58.80;52.63;;;614.70;1766.40;;;;;;5049561;28;20017;-67
2023/11/14 09:32:46;;;;;;;62.13;55.63;;;614.90;1766.40;;;;;;5049854;28;20086;-67
2023/11/14 09:35:12;;;;;;;59.90;53.90;;;640.20;1740.80;;;;;;5049660;28;20025;-67
2023/11/14 09:37:38;;;;;;;53.78;46.80;;;640.40;1689.60;;;;;;5049525;28;20032;-67
2023/11/14 09:40:08;;;;;;;52.22;44.17;;;640.50;1689.60;;;;;;5049748;28;20078;-67
2023/11/14 09:42:37;;;;;;;56.80;47.85;;;640.20;1664.00;;;;;;5049523;28;20029;-66
2023/11/14 09:45:04;;;;;;;63.05;50.67;;;640.40;1664.00;;;;;;5049496;28;20036;-67
2023/11/14 09:47:31;;;;;;;58.70;44.67;;;665.70;1664.00;;;;;;5049524;28;20029;-67
2023/11/14 09:49:58;;;;;;;66.18;47.80;;;666.40;1612.80;;;;;;5049647;28;20057;-66
2023/11/14 09:52:24;;;;;;;66.40;49.75;;;666.50;1612.80;;;;;;5048662;28;20025;-66
2023/11/14 09:54:50;;;;;;;68.55;60.58;;;691.30;1612.80;;;;;;5049155;28;20028;-65
2023/11/14 09:57:18;;;;;;;84.30;64.40;;;691.30;1638.40;;;;;;5031651;28;20017;-67
2023/11/14 09:59:45;;;;;;;71.65;59.65;;;640.00;1689.60;;;;;;5032243;28;20047;-67
2023/11/14 10:02:11;;;;;;;63.28;51.33;;;588.90;1817.60;;;;;;5048949;28;20056;-65
2023/11/14 10:04:44;;;;;;;57.15;38.85;;;538.30;1894.40;;;;;;5049522;28;20037;-67
2023/11/14 10:07:15;;;;;;;54.45;39.38;;;512.90;1920.00;;;;;;5049183;28;20190;-68
2023/11/14 10:09:42;;;;;;;53.78;39.13;;;512.40;1971.20;;;;;;5049277;28;20043;-67
2023/11/14 10:12:09;;;;;;;52.05;33.53;;;512.20;1996.80;;;;;;5049053;28;20475;-66
2023/11/14 10:14:45;;;;;;;54.25;36.17;;;512.00;2022.40;;;;;;5031296;28;20041;-66
2023/11/14 10:17:13;;;;;;;59.97;40.85;;;487.20;2048.00;;;;;;5050013;28;20126;-67
2023/11/14 10:19:59;;;;;;;76.10;53.30;;;487.10;2073.60;;;;;;5049330;28;20403;-67
2023/11/14 10:22:27;;;;;;;60.78;45.63;;;487.30;2073.60;;;;;;5049465;28;20032;-65
2023/11/14 10:24:53;;;;;;;59.85;46.78;;;487.20;2073.60;;;;;;5048778;28;20116;-67
2023/11/14 10:27:28;;;;;;;54.63;37.45;;;512.30;2022.40;;;;;;5048876;28;20060;-66
2023/11/14 10:29:55;;;;;;;50.17;35.63;;;512.30;2022.40;;;;;;5048746;28;20021;-65
2023/11/14 10:32:24;;;;;;;42.97;30.98;;;512.30;2048.00;;;;;;5048731;28;20360;-66
2023/11/14 10:34:53;;;;;;;57.40;37.40;;;512.70;2022.40;;;;;;5030786;28;20036;-65
2023/11/14 10:37:33;;;;;;;49.30;38.88;;;512.50;2022.40;;;;;;5048674;28;20031;-66
2023/11/14 10:40:02;;;;;;;74.30;48.00;;;512.50;2048.00;;;;;;5048715;28;20522;-67
2023/11/14 10:42:28;;;;;;;55.28;37.65;;;512.40;2073.60;;;;;;5048756;28;20021;-67
2023/11/14 10:45:07;;;;;;;61.17;40.08;;;512.20;2099.20;;;;;;5031068;28;20480;-67
2023/11/14 10:47:43;;;;;;;146.00;74.00;;;512.20;2124.80;;;;;;5048781;28;20472;-67
2023/11/14 10:50:28;;;;;;;87.88;53.05;;;512.30;2099.20;;;;;;5048686;28;20029;-66
2023/11/14 10:52:54;;;;;;;44.63;30.13;;;512.20;2124.80;;;;;;5048813;28;20538;-66
2023/11/14 10:55:22;;;;;;;42.40;27.48;;;512.60;2099.20;;;;;;5048787;28;20029;-67
2023/11/14 10:57:51;;;;;;;43.22;22.35;;;512.70;2124.80;;;;;;5048873;28;20553;-66
2023/11/14 11:00:20;;;;;;;50.47;26.92;;;512.50;2124.80;;;;;;5064218;28;20505;-67
2023/11/14 11:02:50;;;;;;;37.47;23.50;;;512.60;2124.80;;;;;;5049948;28;20049;-66
2023/11/14 11:05:17;;;;;;;36.42;20.25;;;512.80;2124.80;;;;;;5052393;28;20120;-66
2023/11/14 11:07:43;;;;;;;35.40;22.98;;;512.90;2099.20;;;;;;5052543;28;20024;-67
2023/11/14 11:10:10;;;;;;;26.67;18.38;;;537.70;2124.80;;;;;;5052207;28;20071;-67
2023/11/14 11:12:39;;;;;;;35.47;22.80;;;537.70;2099.20;;;;;;5052536;28;20047;-66
2023/11/14 11:15:10;;;;;;;32.40;20.95;;;512.90;2099.20;;;;;;5052290;28;20017;-67
2023/11/14 11:17:42;;;;;;;32.80;17.55;;;537.60;2150.40;;;;;;5052297;28;20096;-66
2023/11/14 11:20:21;;;;;;;26.60;17.58;;;537.60;2124.80;;;;;;5052063;28;20045;-67
2023/11/14 11:23:12;;;;;;;38.00;22.48;;;537.60;2124.80;;;;;;5052019;28;20025;-67
2023/11/14 11:26:06;;;;;;;29.90;17.02;;;537.80;2073.60;;;;;;5051933;28;20360;-65
2023/11/14 11:28:32;;;;;;;88.80;68.50;;;537.80;2073.60;;;;;;5051763;28;20071;-66
2023/11/14 11:31:15;;;;;;;22.65;15.38;;;537.90;2048.00;;;;;;5051732;28;20033;-66
2023/11/14 11:33:43;;;;;;;16.27;12.00;;;538.00;2022.40;;;;;;5051852;28;20029;-66
2023/11/14 11:36:27;;;;;;;18.58;13.52;;;538.00;2048.00;;;;;;5051782;28;20021;-66
2023/11/14 11:39:02;;;;;;;24.42;17.35;;;538.10;2048.00;;;;;;5051625;28;20032;-66
2023/11/14 11:41:53;;;;;;;22.67;18.00;;;538.00;2048.00;;;;;;5051689;28;20053;-66
2023/11/14 11:44:19;;;;;;;15.80;13.55;;;538.00;2048.00;;;;;;5051422;28;20094;-66
2023/11/14 11:46:45;;;;;;;18.50;14.52;;;538.00;2048.00;;;;;;5051731;28;20025;-66
2023/11/14 11:49:16;;;;;;;24.30;16.98;;;538.10;2073.60;;;;;;5051338;28;20061;-66
2023/11/14 11:51:46;;;;;;;20.63;13.27;;;538.20;2073.60;;;;;;5051496;28;20017;-66
2023/11/14 11:54:27;;;;;;;14.25;9.77;;;538.20;2048.00;;;;;;5051281;28;20032;-66
2023/11/14 11:57:10;;;;;;;13.50;10.80;;;538.20;2022.40;;;;;;5051305;28;20029;-66
2023/11/14 11:59:39;;;;;;;11.90;7.68;;;538.30;2022.40;;;;;;5051079;28;20075;-66
2023/11/14 12:02:07;;;;;;;10.73;7.88;;;538.30;2022.40;;;;;;5051359;28;20049;-66
2023/11/14 12:04:33;;;;;;;11.27;6.43;;;538.30;1996.80;;;;;;5051242;28;20467;-67